Welcome to Des Moines Iowa Weather. I am an independent private personal weather station on the Northwest Side of Des Moines, Iowa. Just East of Windsor Heights and just West of Glendale . This site is also mobile friendly.

There are no active watches, warnings or advisories


Visit our other weather sites:

Historical Data

Weather Station Setup



Weather Underground History page Text

Daily Summary for February 11, 2018 Units:  Metric    English   Both
« Previous Day
Next Day »
Daily Weekly Monthly Yearly Custom
  High: Low: Average:
Temperature: -5 °C -13.6 °C -10.3 °C
Dew Point: -12.2 °C -16.1 °C -14.1 °C
Humidity: 87 % 56 % 76 %
Wind Speed: 11.3 km/h 0 km/h 1.4 km/h
Wind Gust: 16.1 km/h - -
Wind:- - WNW
Pressure: 1033.7 hPa 1020.5 hPa -
Precipitation: 0 mm    
Historical Graphs
 
 
Tabular Data for February 11, 2018
Time Temperature Dew Point Pressure Wind Wind Speed Wind Gust Humidity Rainfall Rate (Hourly)
00:11 -13.1 °C -15 °C 1023.2 hPa Calm   12.9 km/h 85 % 0 mm
00:26 -13.1 °C -15 °C 1023.6 hPa Calm   6.4 km/h 86 % 0 mm
00:41 -13.1 °C -15 °C 1023.6 hPa Calm   6.4 km/h 86 % 0 mm
00:57 -13.1 °C -15 °C 1022.9 hPa Calm   4.8 km/h 86 % 0 mm
01:12 -13.1 °C -15 °C 1022.9 hPa Calm   4.8 km/h 86 % 0 mm
01:27 -13 °C -15 °C 1022.6 hPa Calm   4.8 km/h 86 % 0 mm
01:42 -13.1 °C -15 °C 1022.2 hPa WNW 1.6 km/h 4.8 km/h 86 % 0 mm
01:57 -13.1 °C -15 °C 1021.9 hPa Calm   1.6 km/h 86 % 0 mm
02:12 -13.1 °C -15 °C 1021.9 hPa WNW 1.6 km/h 4.8 km/h 86 % 0 mm
02:27 -13.1 °C -15 °C 1021.9 hPa Calm   1.6 km/h 86 % 0 mm
02:42 -13.1 °C -15 °C 1021.9 hPa WNW 1.6 km/h 3.2 km/h 87 % 0 mm
02:57 -13.1 °C -15 °C 1021.9 hPa Calm   6.4 km/h 87 % 0 mm
03:15 -13.1 °C -15 °C 1021.9 hPa Calm   3.2 km/h 86 % 0 mm
03:27 -13.1 °C -15 °C 1021.9 hPa Calm   3.2 km/h 86 % 0 mm
03:42 -13.2 °C -15 °C 1021.6 hPa Calm   4.8 km/h 86 % 0 mm
03:57 -13.2 °C -15 °C 1021.6 hPa Calm   3.2 km/h 86 % 0 mm
04:12 -13.1 °C -15 °C 1021.2 hPa Calm   1.6 km/h 86 % 0 mm
04:28 -13.1 °C -15 °C 1021.2 hPa Calm   3.2 km/h 87 % 0 mm
04:42 -13.1 °C -15 °C 1021.2 hPa Calm   3.2 km/h 87 % 0 mm
04:57 -13 °C -14.4 °C 1020.9 hPa Calm   3.2 km/h 87 % 0 mm
05:12 -12.9 °C -14.4 °C 1020.5 hPa NW 1.6 km/h 4.8 km/h 87 % 0 mm
05:27 -12.9 °C -14.4 °C 1020.5 hPa Calm   1.6 km/h 87 % 0 mm
05:42 -12.9 °C -14.4 °C 1020.5 hPa Calm   3.2 km/h 87 % 0 mm
05:57 -12.8 °C -14.4 °C 1020.5 hPa NW 1.6 km/h 1.6 km/h 87 % 0 mm
06:12 -12.8 °C -14.4 °C 1020.9 hPa Calm   3.2 km/h 87 % 0 mm
06:27 -12.8 °C -14.4 °C 1020.9 hPa West 1.6 km/h 4.8 km/h 86 % 0 mm
06:42 -12.8 °C -14.4 °C 1021.6 hPa West 1.6 km/h 3.2 km/h 87 % 0 mm
06:57 -12.8 °C -14.4 °C 1021.6 hPa Calm   3.2 km/h 87 % 0 mm
07:12 -12.9 °C -14.4 °C 1021.6 hPa Calm   3.2 km/h 86 % 0 mm
07:27 -13.1 °C -15 °C 1021.6 hPa Calm   3.2 km/h 86 % 0 mm
07:42 -13.2 °C -15 °C 1021.9 hPa Calm   4.8 km/h 86 % 0 mm
07:57 -13.3 °C -15 °C 1021.9 hPa Calm   3.2 km/h 86 % 0 mm
08:12 -13.3 °C -15 °C 1021.9 hPa WNW 3.2 km/h 4.8 km/h 86 % 0 mm
08:27 -13.3 °C -15 °C 1021.9 hPa WNW 1.6 km/h 3.2 km/h 86 % 0 mm
08:42 -13.1 °C -15 °C 1021.9 hPa Calm   3.2 km/h 86 % 0 mm
08:57 -12.3 °C -13.9 °C 1022.2 hPa West 1.6 km/h 9.7 km/h 86 % 0 mm
09:12 -11.7 °C -13.9 °C 1021.9 hPa NW 1.6 km/h 4.8 km/h 84 % 0 mm
09:27 -10.9 °C -13.3 °C 1021.9 hPa WNW 3.2 km/h 4.8 km/h 82 % 0 mm
09:42 -10.3 °C -13.3 °C 1021.9 hPa Calm   8 km/h 79 % 0 mm
09:57 -9.9 °C -13.3 °C 1022.2 hPa WNW 1.6 km/h 8 km/h 75 % 0 mm
10:12 -9.8 °C -14.4 °C 1022.2 hPa WNW 1.6 km/h 8 km/h 68 % 0 mm
10:28 -9.3 °C -14.4 °C 1022.2 hPa WNW 1.6 km/h 8 km/h 66 % 0 mm
10:43 -8.9 °C -14.4 °C 1022.6 hPa West 3.2 km/h 9.7 km/h 64 % 0 mm
10:58 -8.5 °C -14.4 °C 1022.6 hPa West 3.2 km/h 12.9 km/h 63 % 0 mm
11:13 -8.1 °C -13.9 °C 1022.6 hPa NW 3.2 km/h 9.7 km/h 63 % 0 mm
11:28 -7.6 °C -13.9 °C 1022.2 hPa NW 3.2 km/h 8 km/h 62 % 0 mm
11:43 -7.3 °C -13.9 °C 1022.2 hPa WSW 1.6 km/h 4.8 km/h 61 % 0 mm
11:58 -7.2 °C -13.9 °C 1022.2 hPa WSW 4.8 km/h 6.4 km/h 60 % 0 mm
12:13 -6.3 °C -13.3 °C 1022.2 hPa WSW 6.4 km/h 12.9 km/h 59 % 0 mm
12:29 -5.8 °C -13.3 °C 1022.2 hPa West 4.8 km/h 12.9 km/h 57 % 0 mm
12:43 -5.6 °C -12.8 °C 1022.2 hPa WSW 1.6 km/h 9.7 km/h 58 % 0 mm
12:58 -5.3 °C -12.8 °C 1022.2 hPa SSW 3.2 km/h 8 km/h 56 % 0 mm
13:14 -5.1 °C -12.2 °C 1021.9 hPa West 4.8 km/h 8 km/h 57 % 0 mm
13:29 -5.3 °C -12.2 °C 1022.2 hPa West 3.2 km/h 16.1 km/h 58 % 0 mm
13:44 -5.1 °C -12.2 °C 1022.2 hPa West 1.6 km/h 9.7 km/h 59 % 0 mm
13:59 -5 °C -12.2 °C 1022.2 hPa Calm   8 km/h 58 % 0 mm
14:14 -5 °C -12.2 °C 1022.6 hPa NW 3.2 km/h 16.1 km/h 58 % 0 mm
14:29 -5.3 °C -12.2 °C 1022.6 hPa WNW 3.2 km/h 14.5 km/h 59 % 0 mm
14:44 -5.3 °C -12.2 °C 1022.9 hPa WNW 4.8 km/h 12.9 km/h 60 % 0 mm
15:08 -5.4 °C -12.2 °C 1022.9 hPa West 3.2 km/h 11.3 km/h 59 % 0 mm
15:14 -5.4 °C -12.2 °C 1022.9 hPa NW 3.2 km/h 16.1 km/h 59 % 0 mm
15:29 -5.2 °C -12.2 °C 1023.2 hPa NW 11.3 km/h 12.9 km/h 58 % 0 mm
15:44 -5.4 °C -12.2 °C 1023.2 hPa NW 4.8 km/h 14.5 km/h 59 % 0 mm
15:59 -5.8 °C -12.2 °C 1023.6 hPa West 1.6 km/h 16.1 km/h 60 % 0 mm
16:14 -6.1 °C -12.2 °C 1023.6 hPa NNW 4.8 km/h 14.5 km/h 62 % 0 mm
16:29 -6.3 °C -12.2 °C 1023.9 hPa NW 3.2 km/h 6.4 km/h 64 % 0 mm
16:44 -6.4 °C -12.2 °C 1024.3 hPa NW 3.2 km/h 9.7 km/h 65 % 0 mm
16:59 -6.7 °C -12.2 °C 1024.3 hPa Calm   6.4 km/h 65 % 0 mm
17:14 -6.9 °C -12.8 °C 1024.6 hPa Calm   3.2 km/h 65 % 0 mm
17:29 -7 °C -12.2 °C 1025.3 hPa Calm   3.2 km/h 68 % 0 mm
17:44 -7.3 °C -12.2 °C 1026 hPa NW 1.6 km/h 3.2 km/h 69 % 0 mm
17:59 -7.8 °C -12.2 °C 1026.3 hPa Calm   6.4 km/h 70 % 0 mm
18:14 -8.1 °C -12.2 °C 1026.6 hPa Calm   3.2 km/h 71 % 0 mm
18:29 -8.6 °C -12.8 °C 1027 hPa Calm     71 % 0 mm
18:44 -8.9 °C -13.3 °C 1027.3 hPa Calm   1.6 km/h 72 % 0 mm
18:59 -9.4 °C -13.3 °C 1027.7 hPa Calm     72 % 0 mm
19:14 -9.9 °C -13.9 °C 1028 hPa Calm     72 % 0 mm
19:29 -10.3 °C -14.4 °C 1028.3 hPa Calm     73 % 0 mm
19:44 -10.8 °C -14.4 °C 1028.3 hPa Calm     75 % 0 mm
19:59 -11.1 °C -14.4 °C 1028.7 hPa Calm     76 % 0 mm
20:14 -11.4 °C -14.4 °C 1029 hPa Calm     77 % 0 mm
20:31 -11.8 °C -15 °C 1029.3 hPa Calm     77 % 0 mm
20:45 -12.2 °C -15 °C 1029.7 hPa Calm     78 % 0 mm
21:00 -12.2 °C -15 °C 1030 hPa NW 3.2 km/h 9.7 km/h 81 % 0 mm
21:15 -11.8 °C -14.4 °C 1030.7 hPa Calm   4.8 km/h 82 % 0 mm
21:30 -11.8 °C -14.4 °C 1031 hPa NW 1.6 km/h 6.4 km/h 82 % 0 mm
21:45 -11.9 °C -14.4 °C 1031.4 hPa NW 1.6 km/h 9.7 km/h 81 % 0 mm
22:00 -12.1 °C -14.4 °C 1031.7 hPa NW 4.8 km/h 8 km/h 81 % 0 mm
22:15 -12.2 °C -15 °C 1032.1 hPa NW 1.6 km/h 4.8 km/h 81 % 0 mm
22:30 -12.4 °C -15 °C 1032.1 hPa Calm   3.2 km/h 80 % 0 mm
22:45 -12.7 °C -15.6 °C 1032.4 hPa Calm   1.6 km/h 80 % 0 mm
23:00 -12.9 °C -15.6 °C 1032.7 hPa Calm   4.8 km/h 80 % 0 mm
23:15 -13.1 °C -15.6 °C 1032.7 hPa NW 1.6 km/h 1.6 km/h 80 % 0 mm
23:30 -13.3 °C -16.1 °C 1033.4 hPa Calm   1.6 km/h 80 % 0 mm
23:45 -13.6 °C -16.1 °C 1033.7 hPa Calm   3.2 km/h 80 % 0 mm
Des Moines Weather and Climate
Compliments of Weather Underground - 3 mb

Script developed by  Jim McMurry - jmcmurry@mwt.net Adapted for the template by  Wim van der Kuil - Leuven-Template.eu

You find our weather info also at:

Weather Underground

Equipment we use:

Weather-station
Davis VP2 Plus

Weather-program
Davis Weatherlink.Com

Weather-server
iMac (Retina 4K, 21.5-inch, Late 2015)

Provider
Hostmonster.com

Davis VP2 Plus

Davis Weatherlink.Com

iMac (Retina 4K, 21.5-inch, Late 2015)

Hostmonster.com